sensor_id;sensor_type;location;lat;lon;timestamp;P1;durP1;ratioP1;P2;durP2;ratioP2
59338;SDS011;45117;50.960;5.500;2023-09-30T00:02:09;20.20;;;9.02;;
59338;SDS011;45117;50.960;5.500;2023-09-30T00:04:36;18.05;;;9.55;;
59338;SDS011;45117;50.960;5.500;2023-09-30T00:07:03;16.10;;;8.70;;
59338;SDS011;45117;50.960;5.500;2023-09-30T00:09:30;16.40;;;8.43;;
59338;SDS011;45117;50.960;5.500;2023-09-30T00:11:56;17.38;;;9.20;;
59338;SDS011;45117;50.960;5.500;2023-09-30T00:14:25;16.23;;;8.48;;
59338;SDS011;45117;50.960;5.500;2023-09-30T00:16:53;16.98;;;8.70;;
59338;SDS011;45117;50.960;5.500;2023-09-30T00:19:20;19.25;;;8.68;;
59338;SDS011;45117;50.960;5.500;2023-09-30T00:21:47;18.27;;;8.75;;
59338;SDS011;45117;50.960;5.500;2023-09-30T00:24:14;21.05;;;10.20;;
59338;SDS011;45117;50.960;5.500;2023-09-30T00:26:41;21.60;;;9.90;;
59338;SDS011;45117;50.960;5.500;2023-09-30T00:29:08;17.85;;;9.80;;
59338;SDS011;45117;50.960;5.500;2023-09-30T00:31:35;20.92;;;9.88;;
59338;SDS011;45117;50.960;5.500;2023-09-30T00:34:03;18.90;;;8.90;;
59338;SDS011;45117;50.960;5.500;2023-09-30T00:36:30;19.98;;;8.65;;
59338;SDS011;45117;50.960;5.500;2023-09-30T00:39:03;19.90;;;9.77;;
59338;SDS011;45117;50.960;5.500;2023-09-30T00:41:30;19.75;;;9.88;;
59338;SDS011;45117;50.960;5.500;2023-09-30T00:46:54;17.13;;;9.27;;
59338;SDS011;45117;50.960;5.500;2023-09-30T00:49:24;17.13;;;8.93;;
59338;SDS011;45117;50.960;5.500;2023-09-30T00:51:51;17.50;;;8.95;;
59338;SDS011;45117;50.960;5.500;2023-09-30T00:54:19;18.33;;;9.40;;
59338;SDS011;45117;50.960;5.500;2023-09-30T00:56:48;21.23;;;9.82;;
59338;SDS011;45117;50.960;5.500;2023-09-30T00:59:16;19.83;;;8.80;;
59338;SDS011;45117;50.960;5.500;2023-09-30T01:01:45;22.58;;;9.10;;
59338;SDS011;45117;50.960;5.500;2023-09-30T01:04:12;19.08;;;9.30;;
59338;SDS011;45117;50.960;5.500;2023-09-30T01:06:40;19.50;;;9.35;;
59338;SDS011;45117;50.960;5.500;2023-09-30T01:09:07;22.88;;;10.77;;
59338;SDS011;45117;50.960;5.500;2023-09-30T01:11:34;19.83;;;9.95;;
59338;SDS011;45117;50.960;5.500;2023-09-30T01:14:01;25.10;;;10.85;;
59338;SDS011;45117;50.960;5.500;2023-09-30T01:16:28;27.52;;;10.27;;
59338;SDS011;45117;50.960;5.500;2023-09-30T01:18:55;22.80;;;10.63;;
59338;SDS011;45117;50.960;5.500;2023-09-30T01:21:22;21.45;;;9.60;;
59338;SDS011;45117;50.960;5.500;2023-09-30T01:23:51;22.40;;;10.32;;
59338;SDS011;45117;50.960;5.500;2023-09-30T01:26:18;23.17;;;10.00;;
59338;SDS011;45117;50.960;5.500;2023-09-30T01:28:45;18.80;;;9.68;;
59338;SDS011;45117;50.960;5.500;2023-09-30T01:31:13;20.35;;;9.85;;
59338;SDS011;45117;50.960;5.500;2023-09-30T01:33:40;24.13;;;10.50;;
59338;SDS011;45117;50.960;5.500;2023-09-30T01:36:07;22.98;;;10.52;;
59338;SDS011;45117;50.960;5.500;2023-09-30T01:38:36;23.08;;;10.73;;
59338;SDS011;45117;50.960;5.500;2023-09-30T01:41:04;19.80;;;10.07;;
59338;SDS011;45117;50.960;5.500;2023-09-30T01:43:31;17.75;;;9.32;;
59338;SDS011;45117;50.960;5.500;2023-09-30T01:45:59;15.88;;;8.77;;
59338;SDS011;45117;50.960;5.500;2023-09-30T01:48:26;18.17;;;9.48;;
59338;SDS011;45117;50.960;5.500;2023-09-30T01:50:52;16.70;;;8.70;;
59338;SDS011;45117;50.960;5.500;2023-09-30T01:53:19;17.10;;;8.82;;
59338;SDS011;45117;50.960;5.500;2023-09-30T01:55:45;21.83;;;9.60;;
59338;SDS011;45117;50.960;5.500;2023-09-30T01:58:14;22.73;;;10.40;;
59338;SDS011;45117;50.960;5.500;2023-09-30T02:00:41;17.30;;;9.30;;
59338;SDS011;45117;50.960;5.500;2023-09-30T02:03:13;18.63;;;9.35;;
59338;SDS011;45117;50.960;5.500;2023-09-30T02:05:40;19.45;;;8.88;;
59338;SDS011;45117;50.960;5.500;2023-09-30T02:08:08;19.52;;;9.65;;
59338;SDS011;45117;50.960;5.500;2023-09-30T02:10:35;20.40;;;9.65;;
59338;SDS011;45117;50.960;5.500;2023-09-30T02:13:02;19.08;;;9.60;;
59338;SDS011;45117;50.960;5.500;2023-09-30T02:15:32;20.00;;;9.23;;
59338;SDS011;45117;50.960;5.500;2023-09-30T02:17:59;17.27;;;9.40;;
59338;SDS011;45117;50.960;5.500;2023-09-30T02:20:26;20.00;;;9.20;;
59338;SDS011;45117;50.960;5.500;2023-09-30T02:23:01;17.52;;;9.18;;
59338;SDS011;45117;50.960;5.500;2023-09-30T02:25:33;21.50;;;9.05;;
59338;SDS011;45117;50.960;5.500;2023-09-30T02:28:00;18.50;;;9.10;;
59338;SDS011;45117;50.960;5.500;2023-09-30T02:30:27;21.23;;;9.52;;
59338;SDS011;45117;50.960;5.500;2023-09-30T02:32:55;21.95;;;9.73;;
59338;SDS011;45117;50.960;5.500;2023-09-30T02:35:22;21.88;;;10.32;;
59338;SDS011;45117;50.960;5.500;2023-09-30T02:37:52;21.10;;;9.95;;
59338;SDS011;45117;50.960;5.500;2023-09-30T02:40:28;22.50;;;9.75;;
59338;SDS011;45117;50.960;5.500;2023-09-30T02:43:03;23.15;;;9.93;;
59338;SDS011;45117;50.960;5.500;2023-09-30T02:45:32;18.80;;;9.30;;
59338;SDS011;45117;50.960;5.500;2023-09-30T02:48:17;23.73;;;9.38;;
59338;SDS011;45117;50.960;5.500;2023-09-30T02:50:44;18.90;;;10.13;;
59338;SDS011;45117;50.960;5.500;2023-09-30T02:53:11;20.60;;;10.07;;
59338;SDS011;45117;50.960;5.500;2023-09-30T02:55:40;23.33;;;10.15;;
59338;SDS011;45117;50.960;5.500;2023-09-30T02:58:25;22.15;;;10.85;;
59338;SDS011;45117;50.960;5.500;2023-09-30T03:00:56;22.83;;;11.57;;
59338;SDS011;45117;50.960;5.500;2023-09-30T03:03:30;22.85;;;11.27;;
59338;SDS011;45117;50.960;5.500;2023-09-30T03:05:58;27.58;;;13.43;;
59338;SDS011;45117;50.960;5.500;2023-09-30T03:08:25;23.15;;;11.40;;
59338;SDS011;45117;50.960;5.500;2023-09-30T03:10:52;25.75;;;11.32;;
59338;SDS011;45117;50.960;5.500;2023-09-30T03:13:20;26.08;;;11.18;;
59338;SDS011;45117;50.960;5.500;2023-09-30T03:15:46;28.75;;;12.32;;
59338;SDS011;45117;50.960;5.500;2023-09-30T03:18:14;27.38;;;12.38;;
59338;SDS011;45117;50.960;5.500;2023-09-30T03:20:43;27.65;;;13.35;;
59338;SDS011;45117;50.960;5.500;2023-09-30T03:23:10;22.80;;;11.00;;
59338;SDS011;45117;50.960;5.500;2023-09-30T03:25:39;30.73;;;13.27;;
59338;SDS011;45117;50.960;5.500;2023-09-30T03:28:07;27.10;;;12.25;;
59338;SDS011;45117;50.960;5.500;2023-09-30T03:30:34;25.95;;;12.35;;
59338;SDS011;45117;50.960;5.500;2023-09-30T03:33:01;27.05;;;12.85;;
59338;SDS011;45117;50.960;5.500;2023-09-30T03:35:29;20.10;;;10.95;;
59338;SDS011;45117;50.960;5.500;2023-09-30T03:37:58;27.50;;;11.57;;
59338;SDS011;45117;50.960;5.500;2023-09-30T03:40:27;22.27;;;11.23;;
59338;SDS011;45117;50.960;5.500;2023-09-30T03:42:58;21.00;;;11.00;;
59338;SDS011;45117;50.960;5.500;2023-09-30T03:45:26;23.65;;;11.75;;
59338;SDS011;45117;50.960;5.500;2023-09-30T03:47:53;23.50;;;11.40;;
59338;SDS011;45117;50.960;5.500;2023-09-30T03:50:19;24.00;;;11.05;;
59338;SDS011;45117;50.960;5.500;2023-09-30T03:52:48;19.33;;;10.55;;
59338;SDS011;45117;50.960;5.500;2023-09-30T03:55:16;23.98;;;11.43;;
59338;SDS011;45117;50.960;5.500;2023-09-30T03:57:45;25.02;;;11.80;;
59338;SDS011;45117;50.960;5.500;2023-09-30T04:00:13;26.88;;;11.90;;
59338;SDS011;45117;50.960;5.500;2023-09-30T04:02:43;26.15;;;11.85;;
59338;SDS011;45117;50.960;5.500;2023-09-30T04:05:13;29.95;;;13.25;;
59338;SDS011;45117;50.960;5.500;2023-09-30T04:07:41;28.90;;;13.23;;
59338;SDS011;45117;50.960;5.500;2023-09-30T04:10:09;28.33;;;12.93;;
59338;SDS011;45117;50.960;5.500;2023-09-30T04:12:37;30.75;;;13.30;;
59338;SDS011;45117;50.960;5.500;2023-09-30T04:15:04;25.65;;;11.80;;
59338;SDS011;45117;50.960;5.500;2023-09-30T04:17:32;26.35;;;12.02;;
59338;SDS011;45117;50.960;5.500;2023-09-30T04:19:59;29.52;;;13.65;;
59338;SDS011;45117;50.960;5.500;2023-09-30T04:22:26;22.02;;;11.45;;
59338;SDS011;45117;50.960;5.500;2023-09-30T04:24:54;24.83;;;12.07;;
59338;SDS011;45117;50.960;5.500;2023-09-30T04:27:21;25.88;;;12.90;;
59338;SDS011;45117;50.960;5.500;2023-09-30T04:29:49;23.27;;;11.85;;
59338;SDS011;45117;50.960;5.500;2023-09-30T04:32:16;23.85;;;12.18;;
59338;SDS011;45117;50.960;5.500;2023-09-30T04:34:44;31.08;;;12.95;;
59338;SDS011;45117;50.960;5.500;2023-09-30T04:37:12;29.15;;;12.75;;
59338;SDS011;45117;50.960;5.500;2023-09-30T04:39:39;27.52;;;11.25;;
59338;SDS011;45117;50.960;5.500;2023-09-30T04:42:05;25.52;;;12.40;;
59338;SDS011;45117;50.960;5.500;2023-09-30T04:44:36;28.35;;;12.30;;
59338;SDS011;45117;50.960;5.500;2023-09-30T04:47:04;26.27;;;12.07;;
59338;SDS011;45117;50.960;5.500;2023-09-30T04:49:31;25.23;;;12.27;;
59338;SDS011;45117;50.960;5.500;2023-09-30T04:51:58;24.58;;;12.63;;
59338;SDS011;45117;50.960;5.500;2023-09-30T04:54:25;25.88;;;12.25;;
59338;SDS011;45117;50.960;5.500;2023-09-30T04:56:52;27.08;;;12.73;;
59338;SDS011;45117;50.960;5.500;2023-09-30T04:59:19;26.05;;;12.88;;
59338;SDS011;45117;50.960;5.500;2023-09-30T05:01:47;27.33;;;12.40;;
59338;SDS011;45117;50.960;5.500;2023-09-30T05:04:15;25.17;;;11.95;;
59338;SDS011;45117;50.960;5.500;2023-09-30T05:06:45;30.95;;;12.55;;
59338;SDS011;45117;50.960;5.500;2023-09-30T05:09:12;22.05;;;11.55;;
59338;SDS011;45117;50.960;5.500;2023-09-30T05:11:38;22.90;;;10.95;;
59338;SDS011;45117;50.960;5.500;2023-09-30T05:14:05;28.55;;;12.40;;
59338;SDS011;45117;50.960;5.500;2023-09-30T05:16:35;20.90;;;10.68;;
59338;SDS011;45117;50.960;5.500;2023-09-30T05:19:02;21.95;;;11.07;;
59338;SDS011;45117;50.960;5.500;2023-09-30T05:21:31;21.42;;;10.38;;
59338;SDS011;45117;50.960;5.500;2023-09-30T05:23:58;29.30;;;12.18;;
59338;SDS011;45117;50.960;5.500;2023-09-30T05:26:25;52.95;;;22.42;;
59338;SDS011;45117;50.960;5.500;2023-09-30T05:28:51;39.15;;;18.65;;
59338;SDS011;45117;50.960;5.500;2023-09-30T05:46:41;27.75;;;12.57;;
59338;SDS011;45117;50.960;5.500;2023-09-30T05:49:10;35.10;;;13.98;;
59338;SDS011;45117;50.960;5.500;2023-09-30T05:58:25;31.83;;;14.43;;
59338;SDS011;45117;50.960;5.500;2023-09-30T06:00:52;32.05;;;13.70;;
59338;SDS011;45117;50.960;5.500;2023-09-30T06:03:21;28.70;;;13.10;;
59338;SDS011;45117;50.960;5.500;2023-09-30T06:05:48;32.55;;;13.75;;
59338;SDS011;45117;50.960;5.500;2023-09-30T06:08:18;30.85;;;14.13;;
59338;SDS011;45117;50.960;5.500;2023-09-30T06:10:45;26.20;;;12.73;;
59338;SDS011;45117;50.960;5.500;2023-09-30T06:13:12;29.90;;;13.98;;
59338;SDS011;45117;50.960;5.500;2023-09-30T06:16:21;30.90;;;13.85;;
59338;SDS011;45117;50.960;5.500;2023-09-30T06:19:01;22.90;;;11.95;;
59338;SDS011;45117;50.960;5.500;2023-09-30T06:21:29;30.08;;;12.35;;
59338;SDS011;45117;50.960;5.500;2023-09-30T06:24:01;29.40;;;14.00;;
59338;SDS011;45117;50.960;5.500;2023-09-30T06:26:28;28.52;;;14.32;;
59338;SDS011;45117;50.960;5.500;2023-09-30T06:28:55;31.35;;;14.18;;
59338;SDS011;45117;50.960;5.500;2023-09-30T06:31:22;34.47;;;15.13;;
59338;SDS011;45117;50.960;5.500;2023-09-30T06:33:49;32.92;;;14.73;;
59338;SDS011;45117;50.960;5.500;2023-09-30T06:36:18;33.08;;;15.38;;
59338;SDS011;45117;50.960;5.500;2023-09-30T06:38:46;28.02;;;14.32;;
59338;SDS011;45117;50.960;5.500;2023-09-30T06:41:15;32.80;;;14.95;;
59338;SDS011;45117;50.960;5.500;2023-09-30T06:43:43;26.05;;;13.98;;
59338;SDS011;45117;50.960;5.500;2023-09-30T06:46:12;31.60;;;14.30;;
59338;SDS011;45117;50.960;5.500;2023-09-30T06:48:41;28.67;;;13.70;;
59338;SDS011;45117;50.960;5.500;2023-09-30T06:51:12;27.48;;;13.57;;
59338;SDS011;45117;50.960;5.500;2023-09-30T06:53:42;30.83;;;14.40;;
59338;SDS011;45117;50.960;5.500;2023-09-30T06:56:10;35.80;;;16.25;;
59338;SDS011;45117;50.960;5.500;2023-09-30T06:58:37;32.22;;;14.75;;
59338;SDS011;45117;50.960;5.500;2023-09-30T07:01:04;28.02;;;14.35;;
59338;SDS011;45117;50.960;5.500;2023-09-30T07:03:31;26.67;;;13.85;;
59338;SDS011;45117;50.960;5.500;2023-09-30T07:05:58;31.40;;;14.27;;
59338;SDS011;45117;50.960;5.500;2023-09-30T07:08:28;22.35;;;11.45;;
59338;SDS011;45117;50.960;5.500;2023-09-30T07:11:00;26.20;;;13.68;;
59338;SDS011;45117;50.960;5.500;2023-09-30T07:13:27;24.25;;;11.85;;
59338;SDS011;45117;50.960;5.500;2023-09-30T07:15:53;18.23;;;11.20;;
59338;SDS011;45117;50.960;5.500;2023-09-30T07:18:20;21.40;;;11.10;;
59338;SDS011;45117;50.960;5.500;2023-09-30T07:20:46;19.13;;;9.80;;
59338;SDS011;45117;50.960;5.500;2023-09-30T07:23:13;24.25;;;12.43;;
59338;SDS011;45117;50.960;5.500;2023-09-30T07:28:59;21.80;;;12.10;;
59338;SDS011;45117;50.960;5.500;2023-09-30T07:45:01;25.77;;;13.32;;
59338;SDS011;45117;50.960;5.500;2023-09-30T07:47:41;27.10;;;14.80;;
59338;SDS011;45117;50.960;5.500;2023-09-30T07:50:18;27.77;;;14.95;;
59338;SDS011;45117;50.960;5.500;2023-09-30T08:27:31;19.85;;;11.13;;
59338;SDS011;45117;50.960;5.500;2023-09-30T08:30:01;22.80;;;12.77;;
59338;SDS011;45117;50.960;5.500;2023-09-30T08:36:19;23.25;;;12.77;;
59338;SDS011;45117;50.960;5.500;2023-09-30T08:38:53;22.90;;;13.75;;
59338;SDS011;45117;50.960;5.500;2023-09-30T08:41:32;19.90;;;11.32;;
59338;SDS011;45117;50.960;5.500;2023-09-30T08:44:00;22.58;;;12.65;;
59338;SDS011;45117;50.960;5.500;2023-09-30T08:46:29;21.38;;;12.30;;
59338;SDS011;45117;50.960;5.500;2023-09-30T08:48:57;20.52;;;12.13;;
59338;SDS011;45117;50.960;5.500;2023-09-30T08:51:24;20.50;;;11.75;;
59338;SDS011;45117;50.960;5.500;2023-09-30T08:53:51;18.95;;;11.48;;
59338;SDS011;45117;50.960;5.500;2023-09-30T08:56:19;18.00;;;11.30;;
59338;SDS011;45117;50.960;5.500;2023-09-30T08:58:51;20.65;;;10.77;;
59338;SDS011;45117;50.960;5.500;2023-09-30T09:01:19;14.60;;;9.52;;
59338;SDS011;45117;50.960;5.500;2023-09-30T09:03:46;15.85;;;10.55;;
59338;SDS011;45117;50.960;5.500;2023-09-30T09:06:17;19.23;;;10.57;;
59338;SDS011;45117;50.960;5.500;2023-09-30T09:08:44;16.42;;;9.93;;
59338;SDS011;45117;50.960;5.500;2023-09-30T09:11:11;17.90;;;9.85;;
59338;SDS011;45117;50.960;5.500;2023-09-30T09:13:47;16.55;;;10.02;;
59338;SDS011;45117;50.960;5.500;2023-09-30T09:16:16;14.75;;;9.10;;
59338;SDS011;45117;50.960;5.500;2023-09-30T09:18:44;12.93;;;8.23;;
59338;SDS011;45117;50.960;5.500;2023-09-30T09:21:16;13.63;;;9.43;;
59338;SDS011;45117;50.960;5.500;2023-09-30T09:23:46;14.07;;;9.43;;
59338;SDS011;45117;50.960;5.500;2023-09-30T09:26:23;9.95;;;6.75;;
59338;SDS011;45117;50.960;5.500;2023-09-30T09:28:56;13.10;;;8.63;;
59338;SDS011;45117;50.960;5.500;2023-09-30T09:31:25;13.07;;;8.48;;
59338;SDS011;45117;50.960;5.500;2023-09-30T09:33:53;13.45;;;8.13;;
59338;SDS011;45117;50.960;5.500;2023-09-30T09:39:18;12.20;;;7.80;;
59338;SDS011;45117;50.960;5.500;2023-09-30T09:41:56;13.95;;;8.80;;
59338;SDS011;45117;50.960;5.500;2023-09-30T09:44:23;12.93;;;7.90;;
59338;SDS011;45117;50.960;5.500;2023-09-30T09:46:52;12.32;;;8.25;;
59338;SDS011;45117;50.960;5.500;2023-09-30T09:49:19;13.57;;;7.78;;
59338;SDS011;45117;50.960;5.500;2023-09-30T09:51:47;10.95;;;7.82;;
59338;SDS011;45117;50.960;5.500;2023-09-30T09:54:14;11.25;;;7.63;;
59338;SDS011;45117;50.960;5.500;2023-09-30T09:56:42;9.80;;;6.97;;
59338;SDS011;45117;50.960;5.500;2023-09-30T09:59:11;11.93;;;7.57;;
59338;SDS011;45117;50.960;5.500;2023-09-30T10:01:38;10.95;;;7.57;;
59338;SDS011;45117;50.960;5.500;2023-09-30T10:04:07;11.80;;;7.13;;
59338;SDS011;45117;50.960;5.500;2023-09-30T10:06:38;11.32;;;7.40;;
59338;SDS011;45117;50.960;5.500;2023-09-30T10:09:07;11.77;;;7.78;;
59338;SDS011;45117;50.960;5.500;2023-09-30T10:11:36;11.13;;;7.55;;
59338;SDS011;45117;50.960;5.500;2023-09-30T10:14:05;12.02;;;7.72;;
59338;SDS011;45117;50.960;5.500;2023-09-30T10:16:47;9.75;;;7.00;;
59338;SDS011;45117;50.960;5.500;2023-09-30T10:19:17;9.70;;;6.53;;
59338;SDS011;45117;50.960;5.500;2023-09-30T10:24:49;8.13;;;6.20;;
59338;SDS011;45117;50.960;5.500;2023-09-30T10:27:32;9.20;;;6.15;;
59338;SDS011;45117;50.960;5.500;2023-09-30T10:30:05;7.50;;;5.00;;
59338;SDS011;45117;50.960;5.500;2023-09-30T10:35:48;10.23;;;5.57;;
59338;SDS011;45117;50.960;5.500;2023-09-30T10:38:37;8.13;;;5.35;;
59338;SDS011;45117;50.960;5.500;2023-09-30T10:41:09;8.60;;;5.75;;
59338;SDS011;45117;50.960;5.500;2023-09-30T10:43:38;9.40;;;5.93;;
59338;SDS011;45117;50.960;5.500;2023-09-30T10:49:16;9.25;;;5.60;;
59338;SDS011;45117;50.960;5.500;2023-09-30T10:51:57;9.50;;;5.68;;
59338;SDS011;45117;50.960;5.500;2023-09-30T10:54:26;9.45;;;5.60;;
59338;SDS011;45117;50.960;5.500;2023-09-30T10:56:53;7.68;;;4.72;;
59338;SDS011;45117;50.960;5.500;2023-09-30T10:59:21;8.10;;;5.20;;
59338;SDS011;45117;50.960;5.500;2023-09-30T11:01:49;11.90;;;5.00;;
59338;SDS011;45117;50.960;5.500;2023-09-30T11:04:16;9.43;;;5.88;;
59338;SDS011;45117;50.960;5.500;2023-09-30T11:06:44;9.30;;;5.45;;
59338;SDS011;45117;50.960;5.500;2023-09-30T11:09:16;8.07;;;5.35;;
59338;SDS011;45117;50.960;5.500;2023-09-30T11:11:45;8.48;;;5.47;;
59338;SDS011;45117;50.960;5.500;2023-09-30T11:14:18;6.50;;;4.28;;
59338;SDS011;45117;50.960;5.500;2023-09-30T11:16:45;8.90;;;5.10;;
59338;SDS011;45117;50.960;5.500;2023-09-30T11:19:15;8.90;;;5.38;;
59338;SDS011;45117;50.960;5.500;2023-09-30T11:21:42;8.82;;;5.47;;
59338;SDS011;45117;50.960;5.500;2023-09-30T11:24:10;8.27;;;5.28;;
59338;SDS011;45117;50.960;5.500;2023-09-30T11:26:38;11.27;;;5.68;;
59338;SDS011;45117;50.960;5.500;2023-09-30T11:29:06;10.27;;;5.55;;
59338;SDS011;45117;50.960;5.500;2023-09-30T11:31:36;10.70;;;5.47;;
59338;SDS011;45117;50.960;5.500;2023-09-30T11:34:03;9.73;;;5.57;;
59338;SDS011;45117;50.960;5.500;2023-09-30T11:36:32;7.60;;;4.72;;
59338;SDS011;45117;50.960;5.500;2023-09-30T11:39:00;15.63;;;7.28;;
59338;SDS011;45117;50.960;5.500;2023-09-30T11:41:34;11.88;;;6.47;;
59338;SDS011;45117;50.960;5.500;2023-09-30T11:44:07;12.93;;;6.65;;
59338;SDS011;45117;50.960;5.500;2023-09-30T11:46:49;13.60;;;6.80;;
59338;SDS011;45117;50.960;5.500;2023-09-30T11:49:24;14.70;;;7.43;;
59338;SDS011;45117;50.960;5.500;2023-09-30T11:51:53;14.88;;;6.80;;
59338;SDS011;45117;50.960;5.500;2023-09-30T11:54:20;13.45;;;7.50;;
59338;SDS011;45117;50.960;5.500;2023-09-30T11:56:48;12.02;;;6.75;;
59338;SDS011;45117;50.960;5.500;2023-09-30T11:59:17;14.13;;;6.15;;
59338;SDS011;45117;50.960;5.500;2023-09-30T12:01:47;13.10;;;6.70;;
59338;SDS011;45117;50.960;5.500;2023-09-30T12:04:18;10.43;;;5.93;;
59338;SDS011;45117;50.960;5.500;2023-09-30T12:06:45;10.18;;;5.97;;
59338;SDS011;45117;50.960;5.500;2023-09-30T12:09:13;11.00;;;6.10;;
59338;SDS011;45117;50.960;5.500;2023-09-30T12:11:41;9.63;;;5.28;;
59338;SDS011;45117;50.960;5.500;2023-09-30T12:14:10;7.55;;;4.70;;
59338;SDS011;45117;50.960;5.500;2023-09-30T12:19:43;11.13;;;5.80;;
59338;SDS011;45117;50.960;5.500;2023-09-30T12:22:13;11.82;;;5.63;;
59338;SDS011;45117;50.960;5.500;2023-09-30T12:24:46;12.02;;;5.80;;
59338;SDS011;45117;50.960;5.500;2023-09-30T15:40:34;5.28;;;2.80;;
59338;SDS011;45117;50.960;5.500;2023-09-30T15:43:28;5.82;;;2.72;;
59338;SDS011;45117;50.960;5.500;2023-09-30T17:44:31;9.23;;;5.43;;
59338;SDS011;45117;50.960;5.500;2023-09-30T18:00:50;14.93;;;8.85;;
59338;SDS011;45117;50.960;5.500;2023-09-30T18:03:39;15.90;;;8.70;;
59338;SDS011;45117;50.960;5.500;2023-09-30T18:06:11;14.38;;;8.73;;
59338;SDS011;45117;50.960;5.500;2023-09-30T18:08:38;13.43;;;8.00;;
59338;SDS011;45117;50.960;5.500;2023-09-30T18:11:17;13.18;;;7.90;;
59338;SDS011;45117;50.960;5.500;2023-09-30T18:13:45;15.90;;;8.50;;
59338;SDS011;45117;50.960;5.500;2023-09-30T18:16:20;17.27;;;9.43;;
59338;SDS011;45117;50.960;5.500;2023-09-30T18:19:05;53.65;;;30.73;;
59338;SDS011;45117;50.960;5.500;2023-09-30T18:22:03;27.20;;;15.00;;
59338;SDS011;45117;50.960;5.500;2023-09-30T18:24:45;24.63;;;13.50;;
59338;SDS011;45117;50.960;5.500;2023-09-30T18:27:22;21.45;;;12.43;;
59338;SDS011;45117;50.960;5.500;2023-09-30T18:29:57;21.10;;;11.07;;
59338;SDS011;45117;50.960;5.500;2023-09-30T18:35:52;16.20;;;8.90;;
59338;SDS011;45117;50.960;5.500;2023-09-30T18:38:26;19.02;;;8.40;;
59338;SDS011;45117;50.960;5.500;2023-09-30T18:40:54;13.23;;;7.53;;
59338;SDS011;45117;50.960;5.500;2023-09-30T18:43:26;13.70;;;6.38;;
59338;SDS011;45117;50.960;5.500;2023-09-30T18:46:06;11.38;;;6.88;;
59338;SDS011;45117;50.960;5.500;2023-09-30T20:16:03;15.80;;;8.40;;
59338;SDS011;45117;50.960;5.500;2023-09-30T20:18:30;14.70;;;8.20;;
59338;SDS011;45117;50.960;5.500;2023-09-30T20:20:57;23.63;;;11.98;;
59338;SDS011;45117;50.960;5.500;2023-09-30T20:23:24;22.63;;;12.35;;
59338;SDS011;45117;50.960;5.500;2023-09-30T20:25:53;22.25;;;10.13;;
59338;SDS011;45117;50.960;5.500;2023-09-30T20:28:20;19.67;;;9.63;;
59338;SDS011;45117;50.960;5.500;2023-09-30T20:30:48;16.70;;;8.88;;
59338;SDS011;45117;50.960;5.500;2023-09-30T20:36:10;15.05;;;7.80;;
59338;SDS011;45117;50.960;5.500;2023-09-30T20:38:52;18.83;;;9.30;;
59338;SDS011;45117;50.960;5.500;2023-09-30T20:41:18;16.42;;;9.00;;
59338;SDS011;45117;50.960;5.500;2023-09-30T20:43:56;14.85;;;8.52;;
59338;SDS011;45117;50.960;5.500;2023-09-30T20:46:24;21.58;;;11.85;;
59338;SDS011;45117;50.960;5.500;2023-09-30T20:48:52;20.20;;;10.88;;
59338;SDS011;45117;50.960;5.500;2023-09-30T20:51:19;20.08;;;11.32;;
59338;SDS011;45117;50.960;5.500;2023-09-30T20:53:46;19.70;;;10.65;;
59338;SDS011;45117;50.960;5.500;2023-09-30T20:56:23;22.60;;;11.32;;
59338;SDS011;45117;50.960;5.500;2023-09-30T20:59:29;19.33;;;9.63;;
59338;SDS011;45117;50.960;5.500;2023-09-30T21:01:56;19.95;;;10.10;;
59338;SDS011;45117;50.960;5.500;2023-09-30T21:04:33;17.85;;;9.73;;
59338;SDS011;45117;50.960;5.500;2023-09-30T21:07:04;17.42;;;9.20;;
59338;SDS011;45117;50.960;5.500;2023-09-30T21:09:31;17.58;;;8.82;;
59338;SDS011;45117;50.960;5.500;2023-09-30T21:11:58;21.27;;;10.35;;
59338;SDS011;45117;50.960;5.500;2023-09-30T21:14:26;20.33;;;10.27;;
59338;SDS011;45117;50.960;5.500;2023-09-30T21:16:53;15.13;;;8.60;;
59338;SDS011;45117;50.960;5.500;2023-09-30T21:19:21;18.17;;;8.90;;
59338;SDS011;45117;50.960;5.500;2023-09-30T21:21:49;17.75;;;8.25;;
59338;SDS011;45117;50.960;5.500;2023-09-30T21:24:16;15.88;;;7.75;;
59338;SDS011;45117;50.960;5.500;2023-09-30T21:26:44;13.20;;;7.53;;
59338;SDS011;45117;50.960;5.500;2023-09-30T21:29:12;16.02;;;7.65;;
59338;SDS011;45117;50.960;5.500;2023-09-30T21:31:42;14.05;;;8.05;;
59338;SDS011;45117;50.960;5.500;2023-09-30T21:34:09;15.23;;;9.00;;
59338;SDS011;45117;50.960;5.500;2023-09-30T21:36:38;17.98;;;9.63;;
59338;SDS011;45117;50.960;5.500;2023-09-30T21:39:10;21.20;;;10.45;;
59338;SDS011;45117;50.960;5.500;2023-09-30T21:41:38;18.90;;;10.60;;
59338;SDS011;45117;50.960;5.500;2023-09-30T21:44:05;20.52;;;10.40;;
59338;SDS011;45117;50.960;5.500;2023-09-30T21:46:51;22.27;;;11.30;;
59338;SDS011;45117;50.960;5.500;2023-09-30T21:49:31;24.25;;;10.65;;
59338;SDS011;45117;50.960;5.500;2023-09-30T21:52:03;22.42;;;11.30;;
59338;SDS011;45117;50.960;5.500;2023-09-30T21:54:44;19.60;;;10.57;;
59338;SDS011;45117;50.960;5.500;2023-09-30T21:57:22;23.08;;;10.85;;
59338;SDS011;45117;50.960;5.500;2023-09-30T21:59:51;21.13;;;11.35;;
59338;SDS011;45117;50.960;5.500;2023-09-30T22:02:57;20.33;;;10.30;;
59338;SDS011;45117;50.960;5.500;2023-09-30T22:05:26;19.17;;;10.10;;
59338;SDS011;45117;50.960;5.500;2023-09-30T22:07:54;20.15;;;10.25;;
59338;SDS011;45117;50.960;5.500;2023-09-30T22:10:23;22.15;;;10.60;;
59338;SDS011;45117;50.960;5.500;2023-09-30T22:12:51;17.63;;;9.48;;
59338;SDS011;45117;50.960;5.500;2023-09-30T22:15:18;18.25;;;9.25;;
59338;SDS011;45117;50.960;5.500;2023-09-30T22:17:46;18.00;;;9.02;;
59338;SDS011;45117;50.960;5.500;2023-09-30T22:20:24;18.60;;;9.20;;
59338;SDS011;45117;50.960;5.500;2023-09-30T22:22:55;16.27;;;8.40;;
59338;SDS011;45117;50.960;5.500;2023-09-30T22:25:27;16.67;;;8.20;;
59338;SDS011;45117;50.960;5.500;2023-09-30T22:27:54;16.73;;;8.40;;
59338;SDS011;45117;50.960;5.500;2023-09-30T22:30:24;17.00;;;8.00;;
59338;SDS011;45117;50.960;5.500;2023-09-30T22:32:51;12.13;;;6.30;;
59338;SDS011;45117;50.960;5.500;2023-09-30T22:35:18;11.88;;;6.47;;
59338;SDS011;45117;50.960;5.500;2023-09-30T22:37:46;13.32;;;6.80;;
59338;SDS011;45117;50.960;5.500;2023-09-30T22:40:13;12.93;;;6.43;;
59338;SDS011;45117;50.960;5.500;2023-09-30T22:42:49;13.60;;;5.95;;
59338;SDS011;45117;50.960;5.500;2023-09-30T22:45:28;11.40;;;6.07;;
59338;SDS011;45117;50.960;5.500;2023-09-30T22:47:56;9.68;;;5.45;;
59338;SDS011;45117;50.960;5.500;2023-09-30T22:50:24;11.25;;;5.50;;
59338;SDS011;45117;50.960;5.500;2023-09-30T22:52:55;13.23;;;6.15;;
59338;SDS011;45117;50.960;5.500;2023-09-30T22:55:23;12.38;;;6.30;;
59338;SDS011;45117;50.960;5.500;2023-09-30T22:57:52;11.60;;;6.60;;
59338;SDS011;45117;50.960;5.500;2023-09-30T23:00:23;12.38;;;5.85;;
59338;SDS011;45117;50.960;5.500;2023-09-30T23:02:52;12.13;;;6.43;;
59338;SDS011;45117;50.960;5.500;2023-09-30T23:05:20;11.60;;;6.63;;
59338;SDS011;45117;50.960;5.500;2023-09-30T23:07:47;10.63;;;6.28;;
59338;SDS011;45117;50.960;5.500;2023-09-30T23:10:17;10.13;;;6.05;;
59338;SDS011;45117;50.960;5.500;2023-09-30T23:12:50;12.48;;;6.15;;
59338;SDS011;45117;50.960;5.500;2023-09-30T23:15:19;11.43;;;5.50;;
59338;SDS011;45117;50.960;5.500;2023-09-30T23:17:48;12.98;;;5.88;;
59338;SDS011;45117;50.960;5.500;2023-09-30T23:20:15;13.43;;;5.97;;
59338;SDS011;45117;50.960;5.500;2023-09-30T23:22:46;9.73;;;5.20;;